Time;durP1;ratioP1;P1;durP2;ratioP2;P2;SDS_P1;SDS_P2;PMS_P1;PMS_P2;Temp;Humidity;BMP_temperature;BMP_pressure;BME280_temperature;BME280_humidity;BME280_pressure;Samples;Min_cycle;Max_cycle;Signal;HPM_P1;HPM_P2
2023/08/25 00:00:46;;;;;;;8.02;5.40;;;;;;;21.56;54.30;100158.97;5030935;28;20207;-68
2023/08/25 00:03:14;;;;;;;8.18;5.07;;;;;;;21.54;54.54;100163.47;5030766;28;20211;-69
2023/08/25 00:05:44;;;;;;;8.02;4.82;;;;;;;21.52;54.43;100164.47;5030920;28;20226;-69
2023/08/25 00:08:12;;;;;;;7.20;4.72;;;;;;;21.51;54.64;100171.50;5031274;28;20206;-69
2023/08/25 00:10:40;;;;;;;8.13;4.20;;;;;;;21.47;54.60;100156.88;5016903;28;20597;-68
2023/08/25 00:13:07;;;;;;;7.50;4.50;;;;;;;21.46;54.64;100157.78;5030751;28;20209;-69
2023/08/25 00:15:36;;;;;;;11.70;4.80;;;;;;;21.47;54.70;100156.88;5030632;28;20652;-69
2023/08/25 00:18:05;;;;;;;5.43;4.70;;;;;;;21.47;54.26;100159.50;5030799;28;20237;-67
2023/08/25 00:20:33;;;;;;;11.85;4.50;;;;;;;21.47;54.76;100151.63;5030732;28;20206;-67
2023/08/25 00:23:02;;;;;;;8.02;4.85;;;;;;;21.46;54.48;100149.91;5030924;28;20249;-67
2023/08/25 00:25:31;;;;;;;5.95;4.72;;;;;;;21.45;54.72;100143.81;5029131;28;20245;-70
2023/08/25 00:27:59;;;;;;;7.07;4.47;;;;;;;21.44;54.92;100139.53;5029247;28;20202;-67
2023/08/25 00:30:28;;;;;;;6.00;4.25;;;;;;;21.43;54.89;100135.22;5030795;28;20203;-67
2023/08/25 00:32:55;;;;;;;7.32;4.05;;;;;;;21.41;54.87;100138.84;5027540;28;20239;-68
2023/08/25 00:35:24;;;;;;;9.30;4.65;;;;;;;21.42;54.72;100140.53;5019904;28;20245;-67
2023/08/25 00:37:52;;;;;;;5.80;3.90;;;;;;;21.39;54.46;100132.81;5030418;28;20207;-68
2023/08/25 00:40:22;;;;;;;5.28;3.80;;;;;;;21.35;54.69;100132.16;5030395;28;20285;-67
2023/08/25 00:42:50;;;;;;;6.78;3.50;;;;;;;21.32;53.55;100132.31;5030676;28;20207;-68
2023/08/25 00:45:18;;;;;;;5.57;3.60;;;;;;;21.29;54.34;100145.56;5030450;28;20283;-68
2023/08/25 00:47:47;;;;;;;5.05;3.50;;;;;;;21.28;54.19;100146.47;5030290;28;20242;-69
2023/08/25 00:50:15;;;;;;;5.13;3.30;;;;;;;21.29;53.45;100147.34;5030154;28;20195;-68
2023/08/25 00:52:44;;;;;;;6.35;3.97;;;;;;;21.26;53.92;100152.75;5030184;28;20210;-68
2023/08/25 00:55:12;;;;;;;4.88;3.60;;;;;;;21.23;54.41;100156.38;5030345;28;20668;-68
2023/08/25 00:57:41;;;;;;;8.77;4.13;;;;;;;21.21;54.76;100161.72;5030293;28;20202;-69
2023/08/25 01:00:11;;;;;;;5.68;3.80;;;;;;;21.18;54.95;100161.88;5030352;28;20203;-67
2023/08/25 01:02:39;;;;;;;7.40;4.22;;;;;;;21.13;55.09;100169.13;5033693;28;20289;-68
2023/08/25 01:05:08;;;;;;;6.80;3.53;;;;;;;21.09;54.80;100172.00;5033704;28;20268;-67
2023/08/25 01:07:36;;;;;;;6.72;3.92;;;;;;;21.06;54.85;100178.25;5034069;28;20595;-68
2023/08/25 01:10:05;;;;;;;4.65;3.50;;;;;;;21.03;55.08;100193.28;5033775;28;20230;-67
2023/08/25 01:12:41;;;;;;;8.43;3.55;;;;;;;21.01;54.93;100195.97;5033979;28;20273;-67
2023/08/25 01:15:19;;;;;;;4.43;3.13;;;;;;;21.02;54.29;100189.81;5033857;28;20591;-68
2023/08/25 01:17:53;;;;;;;7.80;3.03;;;;;;;21.05;53.57;100191.44;5033502;28;20237;-67
2023/08/25 01:20:23;;;;;;;5.25;3.88;;;;;;;21.05;53.75;100191.44;5033684;28;20232;-67
2023/08/25 01:23:10;;;;;;;4.25;3.22;;;;;;;21.01;54.50;100190.72;5026108;28;20265;-67
2023/08/25 01:25:41;;;;;;;7.90;3.83;;;;;;;20.99;54.71;100190.00;5030103;28;20218;-66
2023/08/25 01:28:09;;;;;;;4.50;3.38;;;;;;;20.99;54.71;100184.75;5033628;28;20195;-69
2023/08/25 01:30:37;;;;;;;7.63;3.88;;;;;;;20.96;54.75;100175.25;5021589;28;20247;-66
2023/08/25 01:33:06;;;;;;;5.85;3.70;;;;;;;20.98;55.38;100172.56;5031637;28;20737;-68
2023/08/25 01:35:47;;;;;;;5.15;3.70;;;;;;;21.01;55.05;100169.78;5033115;28;20290;-68
2023/08/25 01:38:22;;;;;;;6.47;3.67;;;;;;;21.03;54.64;100173.19;5033510;28;20680;-71
2023/08/25 01:41:00;;;;;;;5.78;3.83;;;;;;;21.05;54.19;100168.69;5033176;28;20213;-68
2023/08/25 01:43:33;;;;;;;4.07;3.50;;;;;;;21.09;53.89;100166.75;5032854;28;20289;-69
2023/08/25 01:46:01;;;;;;;6.60;3.67;;;;;;;21.08;54.34;100165.06;5033016;28;20261;-67
2023/08/25 01:48:32;;;;;;;6.22;4.00;;;;;;;21.06;54.24;100159.91;5032769;28;20202;-68
2023/08/25 01:51:00;;;;;;;4.93;3.47;;;;;;;21.05;54.93;100155.59;5033056;28;20206;-68
2023/08/25 01:53:29;;;;;;;7.32;4.15;;;;;;;21.10;54.80;100168.44;5033040;28;20596;-68
2023/08/25 01:55:58;;;;;;;4.13;3.50;;;;;;;21.13;54.47;100163.88;5032776;28;20206;-68
2023/08/25 01:58:26;;;;;;;5.63;3.78;;;;;;;21.18;54.43;100158.41;5032856;28;20256;-69
2023/08/25 02:00:54;;;;;;;5.47;3.63;;;;;;;21.16;55.00;100155.84;5032751;28;20215;-68
2023/08/25 02:03:22;;;;;;;4.68;3.65;;;;;;;21.14;55.15;100159.50;5032920;28;20684;-67
2023/08/25 02:05:50;;;;;;;4.57;3.67;;;;;;;21.15;55.73;100141.06;5032818;28;20325;-67
2023/08/25 02:08:18;;;;;;;4.50;3.53;;;;;;;21.13;56.24;100132.44;5032296;28;20211;-69
2023/08/25 02:10:46;;;;;;;4.55;3.90;;;;;;;21.16;55.99;100137.50;5032762;28;20210;-69
2023/08/25 02:13:15;;;;;;;5.00;4.05;;;;;;;21.14;55.32;100123.66;5019012;28;20214;-68
2023/08/25 02:15:45;;;;;;;4.35;3.50;;;;;;;21.17;55.43;100117.41;5018133;28;20638;-68
2023/08/25 02:18:13;;;;;;;5.72;4.03;;;;;;;21.17;55.34;100113.03;5032764;28;20203;-68
2023/08/25 02:20:41;;;;;;;5.93;3.72;;;;;;;21.15;55.78;100103.53;5032617;28;20203;-67
2023/08/25 02:23:10;;;;;;;5.45;4.07;;;;;;;21.18;55.70;100106.84;5032244;28;20201;-68
2023/08/25 02:25:37;;;;;;;7.90;4.05;;;;;;;21.21;55.44;100105.84;5032236;28;20241;-72
2023/08/25 02:28:06;;;;;;;6.45;4.10;;;;;;;21.23;55.29;100101.34;5032452;28;20658;-69
2023/08/25 02:30:35;;;;;;;4.85;4.13;;;;;;;21.23;55.17;100096.94;5032468;28;20337;-68
2023/08/25 02:33:03;;;;;;;5.05;4.10;;;;;;;21.25;55.27;100094.25;5031803;28;20262;-72
2023/08/25 02:35:31;;;;;;;4.97;4.20;;;;;;;21.28;55.17;100095.84;5032230;28;20650;-68
2023/08/25 02:38:04;;;;;;;6.70;3.53;;;;;;;21.30;55.24;100094.00;5031821;28;20237;-68
2023/08/25 02:40:32;;;;;;;6.65;4.18;;;;;;;21.33;55.53;100088.59;5032405;28;20565;-67
2023/08/25 02:43:02;;;;;;;5.85;4.35;;;;;;;21.33;56.02;100085.97;5031765;28;20229;-67
2023/08/25 02:45:30;;;;;;;8.40;4.55;;;;;;;21.34;55.27;100087.69;5032223;28;20325;-68
2023/08/25 02:47:59;;;;;;;6.45;4.80;;;;;;;21.33;56.02;100086.84;5031298;28;20217;-67
2023/08/25 02:50:28;;;;;;;5.78;4.10;;;;;;;21.33;55.27;100081.59;5012127;28;20257;-69
2023/08/25 02:52:56;;;;;;;7.65;4.80;;;;;;;21.32;55.13;100071.16;5025658;28;20210;-69
2023/08/25 02:55:24;;;;;;;5.57;4.38;;;;;;;21.32;55.41;100079.00;5032153;28;20333;-69
2023/08/25 02:57:53;;;;;;;5.35;3.97;;;;;;;21.30;55.16;100073.03;5031934;28;20668;-67
2023/08/25 03:00:23;;;;;;;7.45;4.60;;;;;;;21.27;55.44;100073.19;5031444;28;20209;-68
2023/08/25 03:02:52;;;;;;;8.43;4.63;;;;;;;21.26;55.84;100082.00;5031491;28;20214;-67
2023/08/25 03:05:22;;;;;;;7.00;4.50;;;;;;;21.25;55.96;100081.16;5031584;28;20584;-68
2023/08/25 03:07:51;;;;;;;8.68;4.60;;;;;;;21.22;56.18;100083.94;5031412;28;20255;-67
2023/08/25 03:10:20;;;;;;;5.05;4.05;;;;;;;21.22;56.09;100086.56;5031761;28;20670;-67
2023/08/25 03:12:50;;;;;;;5.05;4.07;;;;;;;21.20;56.07;100085.78;5031578;28;20210;-68
2023/08/25 03:15:19;;;;;;;8.45;4.45;;;;;;;21.18;55.83;100083.25;5031689;28;20203;-67
2023/08/25 03:17:48;;;;;;;6.43;4.30;;;;;;;21.15;56.24;100083.44;5031353;28;20210;-69
2023/08/25 03:20:16;;;;;;;23.75;21.17;;;;;;;21.15;56.76;100083.44;5030549;28;20290;-67
2023/08/25 03:22:45;;;;;;;11.68;8.25;;;;;;;21.15;56.38;100082.59;5018282;28;20264;-68
2023/08/25 03:25:13;;;;;;;6.95;5.60;;;;;;;21.15;56.85;100078.19;5031467;28;20516;-69
2023/08/25 03:27:41;;;;;;;6.75;4.63;;;;;;;21.16;57.10;100079.88;5029330;28;20215;-69
2023/08/25 03:30:09;;;;;;;6.55;4.38;;;;;;;21.11;56.76;100070.59;5019370;28;20217;-68
2023/08/25 03:32:37;;;;;;;6.70;4.20;;;;;;;21.14;56.60;100073.88;5030670;28;20589;-69
2023/08/25 03:35:08;;;;;;;5.60;4.40;;;;;;;21.13;56.73;100077.41;5031230;28;20704;-69
2023/08/25 03:37:36;;;;;;;10.10;4.22;;;;;;;21.13;57.27;100077.41;5018323;28;20716;-68
2023/08/25 03:40:10;;;;;;;9.13;5.10;;;;;;;21.14;57.42;100079.13;5031092;28;20198;-69
2023/08/25 03:42:38;;;;;;;9.60;4.30;;;;;;;21.14;57.38;100081.75;5031350;28;20216;-70
2023/08/25 03:45:07;;;;;;;5.53;4.15;;;;;;;21.12;57.14;100083.59;5031282;28;20203;-69
2023/08/25 03:47:35;;;;;;;9.00;4.53;;;;;;;21.11;56.67;100087.16;5030675;28;20223;-68
2023/08/25 03:50:03;;;;;;;6.57;3.88;;;;;;;21.08;56.41;100087.31;5031104;28;20617;-67
2023/08/25 03:52:31;;;;;;;7.82;4.55;;;;;;;21.08;57.16;100089.09;5031602;28;20274;-69
2023/08/25 03:55:00;;;;;;;7.70;4.78;;;;;;;21.10;56.94;100085.47;5030622;28;20231;-69
2023/08/25 03:57:29;;;;;;;7.53;4.32;;;;;;;21.13;56.80;100084.44;5030836;28;20203;-68
2023/08/25 03:59:57;;;;;;;7.25;4.57;;;;;;;21.12;55.94;100088.81;5030589;28;20207;-69
2023/08/25 04:02:25;;;;;;;6.65;4.32;;;;;;;21.16;55.63;100087.72;5031079;28;20234;-69
2023/08/25 04:04:53;;;;;;;5.05;4.55;;;;;;;21.21;55.05;100085.72;5031080;28;20572;-69
2023/08/25 04:07:23;;;;;;;6.63;4.70;;;;;;;21.26;54.84;100082.00;5024385;28;20215;-67
2023/08/25 04:09:54;;;;;;;6.57;4.45;;;;;;;21.28;54.67;100083.59;5023896;28;20238;-68
2023/08/25 04:12:22;;;;;;;7.03;5.03;;;;;;;21.31;54.58;100080.78;5030658;28;20209;-67
2023/08/25 04:14:52;;;;;;;6.90;4.85;;;;;;;21.38;54.42;100086.59;5030568;28;20202;-69
2023/08/25 04:17:20;;;;;;;6.53;4.70;;;;;;;21.42;54.10;100077.59;5030673;28;20259;-69
2023/08/25 04:19:49;;;;;;;7.63;5.65;;;;;;;21.48;53.81;100082.53;5030481;28;20276;-69
2023/08/25 04:22:17;;;;;;;6.82;5.07;;;;;;;21.51;53.81;100078.91;5030365;28;20253;-68
2023/08/25 04:24:45;;;;;;;8.80;5.18;;;;;;;21.56;54.12;100077.69;5030557;28;20207;-67
2023/08/25 04:27:13;;;;;;;8.23;5.22;;;;;;;21.59;54.17;100074.06;5030773;28;20214;-68
2023/08/25 04:29:41;;;;;;;6.72;5.10;;;;;;;21.63;53.76;100079.03;5030469;28;20202;-69
2023/08/25 04:32:10;;;;;;;5.65;4.88;;;;;;;21.63;53.64;100075.56;5030794;28;20743;-68
2023/08/25 04:34:38;;;;;;;11.98;5.32;;;;;;;21.63;53.46;100071.16;5027667;28;20203;-67
2023/08/25 04:37:06;;;;;;;5.93;4.88;;;;;;;21.62;53.39;100066.84;5023099;28;20207;-68
2023/08/25 04:39:34;;;;;;;5.72;4.90;;;;;;;21.63;53.17;100068.53;5019198;28;20207;-68
2023/08/25 04:42:03;;;;;;;6.53;4.90;;;;;;;21.66;53.29;100062.28;5022643;28;20257;-68
2023/08/25 04:44:31;;;;;;;6.13;5.15;;;;;;;21.66;53.48;100062.28;5034047;28;20207;-67
2023/08/25 04:46:59;;;;;;;6.80;5.60;;;;;;;21.67;53.19;100054.31;5034199;28;20256;-69
2023/08/25 04:49:28;;;;;;;7.47;5.82;;;;;;;21.68;53.31;100048.13;5034368;28;20272;-66
2023/08/25 04:51:58;;;;;;;8.05;6.05;;;;;;;21.71;53.43;100036.63;5034482;28;20514;-68
2023/08/25 04:54:26;;;;;;;10.13;6.20;;;;;;;21.74;53.22;100043.47;5034345;28;20347;-67
2023/08/25 04:56:54;;;;;;;8.13;6.65;;;;;;;21.75;53.28;100035.50;5033919;28;20207;-71
2023/08/25 04:59:22;;;;;;;10.25;6.80;;;;;;;21.78;53.12;100029.25;5034251;28;20700;-69
2023/08/25 05:01:50;;;;;;;7.55;6.70;;;;;;;21.79;53.25;100026.53;5033793;28;20203;-68
2023/08/25 05:04:18;;;;;;;9.43;6.63;;;;;;;21.78;53.22;100024.00;5033839;28;20217;-68
2023/08/25 05:06:47;;;;;;;8.45;5.97;;;;;;;21.77;53.07;100023.16;5033632;28;20666;-69
2023/08/25 05:09:15;;;;;;;7.10;5.65;;;;;;;21.77;53.09;100022.34;5033792;28;20289;-67
2023/08/25 05:11:43;;;;;;;8.00;5.68;;;;;;;21.75;53.31;100032.91;5033420;28;20222;-71
2023/08/25 05:14:12;;;;;;;7.45;5.47;;;;;;;21.77;53.45;100030.19;5020470;28;20199;-69
2023/08/25 05:16:40;;;;;;;6.68;5.28;;;;;;;21.79;53.09;100030.94;5033850;28;20666;-67
2023/08/25 05:19:09;;;;;;;8.15;5.82;;;;;;;21.82;53.24;100028.13;5019483;28;20301;-68
2023/08/25 05:21:37;;;;;;;8.68;7.50;;;;;;;21.85;53.49;100030.59;5033700;28;20246;-68
2023/08/25 05:24:20;;;;;;;13.80;7.85;;;;;;;21.86;53.88;100027.03;5033795;28;20257;-68
2023/08/25 05:26:51;;;;;;;7.97;7.18;;;;;;;21.92;54.03;100026.66;5033637;28;20708;-70
2023/08/25 05:29:20;;;;;;;8.93;7.70;;;;;;;22.00;53.99;100029.69;5019257;28;20218;-69
2023/08/25 05:31:48;;;;;;;11.20;8.15;;;;;;;22.07;53.76;100025.75;5033246;28;20219;-68
2023/08/25 05:34:16;;;;;;;9.32;7.72;;;;;;;22.15;53.74;100023.53;5019266;28;20250;-70
2023/08/25 05:36:44;;;;;;;8.13;7.32;;;;;;;22.27;53.23;100021.13;5019577;28;20210;-69
2023/08/25 05:39:12;;;;;;;9.02;6.90;;;;;;;22.36;53.14;100020.59;5033239;28;20264;-68
2023/08/25 05:41:41;;;;;;;13.13;7.28;;;;;;;22.41;52.91;100021.13;5033009;28;20745;-68
2023/08/25 05:44:10;;;;;;;11.68;9.32;;;;;;;22.42;53.09;100014.94;5033102;28;20222;-69
2023/08/25 05:46:40;;;;;;;11.93;7.40;;;;;;;22.43;53.25;100011.41;5032826;28;20716;-70
2023/08/25 05:49:08;;;;;;;8.23;7.00;;;;;;;22.51;53.37;100005.66;5021927;28;20225;-68
2023/08/25 05:51:36;;;;;;;10.52;7.18;;;;;;;22.57;53.32;100011.41;5029809;28;20211;-69
2023/08/25 05:54:04;;;;;;;9.77;6.78;;;;;;;22.62;53.31;100001.44;5033076;28;20203;-68
2023/08/25 05:56:32;;;;;;;10.23;6.68;;;;;;;22.61;53.08;99999.75;5032935;28;20662;-70
2023/08/25 05:59:02;;;;;;;8.85;7.05;;;;;;;22.60;53.19;99992.78;5032677;28;20202;-68
2023/08/25 06:01:30;;;;;;;10.90;7.20;;;;;;;22.56;53.24;99985.22;5032557;28;20241;-69
2023/08/25 06:04:00;;;;;;;10.82;7.60;;;;;;;22.57;53.49;99987.75;5032961;28;20684;-69
2023/08/25 06:06:30;;;;;;;8.55;6.90;;;;;;;22.58;53.57;99978.94;5032942;28;20260;-69
2023/08/25 06:08:58;;;;;;;11.52;7.13;;;;;;;22.64;53.43;99989.06;5032534;28;20299;-68
2023/08/25 06:11:26;;;;;;;13.48;6.70;;;;;;;22.71;53.17;99984.25;5032940;28;20261;-70
2023/08/25 06:13:54;;;;;;;10.88;7.50;;;;;;;22.79;52.83;99987.25;5032709;28;20206;-69
2023/08/25 06:16:24;;;;;;;12.30;6.90;;;;;;;22.94;52.42;99984.59;5032538;28;20207;-69
2023/08/25 06:18:52;;;;;;;9.50;7.05;;;;;;;23.04;52.19;99981.28;5029227;28;20211;-67
2023/08/25 06:21:20;;;;;;;9.07;7.03;;;;;;;23.14;51.88;99971.03;5021857;28;20217;-68
2023/08/25 06:23:48;;;;;;;12.07;6.95;;;;;;;23.25;51.71;99973.81;5032033;28;20203;-68
2023/08/25 06:26:17;;;;;;;7.90;6.68;;;;;;;23.40;51.13;99971.97;5028277;28;20213;-69
2023/08/25 06:28:45;;;;;;;8.93;7.18;;;;;;;23.49;50.97;99970.50;5032181;28;20230;-67
2023/08/25 06:31:13;;;;;;;8.43;6.32;;;;;;;23.60;50.47;99982.00;5029413;28;20222;-68
2023/08/25 06:33:42;;;;;;;7.20;6.45;;;;;;;23.69;50.35;99975.31;5012334;28;20241;-70
2023/08/25 06:36:10;;;;;;;9.98;6.75;;;;;;;23.75;50.04;99966.16;5027693;28;20206;-68
2023/08/25 06:38:39;;;;;;;10.30;7.13;;;;;;;23.76;49.91;99967.84;5024472;28;20200;-69
2023/08/25 06:41:23;;;;;;;13.88;7.10;;;;;;;23.77;50.06;99974.78;5028442;28;20211;-69
2023/08/25 06:43:51;;;;;;;8.73;6.68;;;;;;;23.80;50.00;99974.59;5032206;28;20218;-68
2023/08/25 06:46:19;;;;;;;11.80;7.18;;;;;;;23.74;50.08;99969.72;5032034;28;20689;-69
2023/08/25 06:48:50;;;;;;;10.48;7.47;;;;;;;23.63;50.69;99968.63;5031935;28;20268;-69
2023/08/25 06:51:18;;;;;;;12.40;7.72;;;;;;;23.61;50.66;99970.53;5031804;28;20272;-74
2023/08/25 06:53:46;;;;;;;12.70;7.43;;;;;;;23.56;50.55;99969.97;5032012;28;20646;-70
2023/08/25 06:56:14;;;;;;;9.77;7.32;;;;;;;23.48;50.99;99963.56;5031585;28;20233;-71
2023/08/25 06:58:42;;;;;;;11.52;6.65;;;;;;;23.51;50.96;99963.34;5031106;28;20209;-69
2023/08/25 07:01:10;;;;;;;8.32;6.43;;;;;;;23.48;50.65;99966.19;5031803;28;20571;-68
2023/08/25 07:03:38;;;;;;;13.57;7.35;;;;;;;23.45;50.90;99975.13;5017994;28;20199;-70
2023/08/25 07:06:08;;;;;;;10.80;7.35;;;;;;;23.39;51.23;99970.28;5031526;28;20238;-68
2023/08/25 07:08:37;;;;;;;16.20;8.35;;;;;;;23.31;51.56;99969.94;5031211;28;20226;-68
2023/08/25 07:11:05;;;;;;;11.65;7.22;;;;;;;23.27;51.54;99963.19;5031900;28;20684;-69
2023/08/25 07:13:33;;;;;;;10.63;7.15;;;;;;;23.23;51.91;99972.22;5031636;28;20555;-68
2023/08/25 07:16:03;;;;;;;9.60;7.00;;;;;;;23.17;52.06;99965.59;5031624;28;20551;-67
2023/08/25 07:18:31;;;;;;;10.88;7.00;;;;;;;23.15;52.17;99968.28;5031161;28;20289;-69
2023/08/25 07:21:04;;;;;;;8.68;6.82;;;;;;;23.17;52.30;99964.75;5031308;28;20290;-69
2023/08/25 07:23:33;;;;;;;8.95;7.20;;;;;;;23.24;52.14;99966.03;5031048;28;20297;-68
2023/08/25 07:26:01;;;;;;;11.90;7.45;;;;;;;23.30;52.03;99966.44;5017590;28;20220;-68
2023/08/25 07:28:29;;;;;;;13.70;7.20;;;;;;;23.28;51.72;99967.50;5023415;28;20670;-68
2023/08/25 07:30:59;;;;;;;7.75;6.65;;;;;;;23.29;51.98;99964.78;5025975;28;20213;-70
2023/08/25 07:33:27;;;;;;;17.42;11.63;;;;;;;23.54;51.84;99960.53;5030940;28;20657;-68
2023/08/25 07:35:55;;;;;;;10.68;7.07;;;;;;;23.61;51.32;99960.00;5017606;28;20215;-68
2023/08/25 07:38:24;;;;;;;11.48;6.93;;;;;;;23.61;51.04;99965.28;5031269;28;20207;-68
2023/08/25 07:40:54;;;;;;;12.60;7.13;;;;;;;23.60;51.30;99960.97;5031073;28;20305;-69
2023/08/25 07:43:22;;;;;;;9.20;7.32;;;;;;;23.56;51.51;99954.19;5030911;28;20210;-69
2023/08/25 07:45:50;;;;;;;12.15;7.65;;;;;;;23.48;51.59;99956.50;5030894;28;20207;-68
2023/08/25 07:48:18;;;;;;;10.90;7.57;;;;;;;23.41;51.55;99947.34;5030871;28;20634;-68
2023/08/25 07:50:46;;;;;;;11.38;7.65;;;;;;;23.30;52.09;99939.31;5030857;28;20290;-69
2023/08/25 07:53:14;;;;;;;9.35;6.50;;;;;;;23.21;52.34;99946.03;5016895;28;20277;-67
2023/08/25 07:55:43;;;;;;;9.10;7.07;;;;;;;23.19;52.55;99944.44;5030857;28;20206;-71
2023/08/25 07:58:12;;;;;;;10.27;6.93;;;;;;;23.20;52.46;99944.34;5030782;28;20214;-68
2023/08/25 08:00:42;;;;;;;8.77;6.35;;;;;;;23.27;52.67;99944.78;5031027;28;20800;-69
2023/08/25 08:03:10;;;;;;;11.77;6.82;;;;;;;23.32;52.56;99943.53;5030822;28;20326;-69
2023/08/25 08:05:39;;;;;;;9.30;6.95;;;;;;;23.37;52.17;99945.84;5017481;28;20294;-69
2023/08/25 08:08:09;;;;;;;9.65;6.57;;;;;;;23.39;52.10;99941.34;5030545;28;20260;-68
2023/08/25 08:10:37;;;;;;;12.00;7.07;;;;;;;23.44;52.17;99943.66;5017610;28;20214;-67
2023/08/25 08:13:06;;;;;;;8.20;6.50;;;;;;;23.43;52.07;99940.19;5035137;28;20568;-69
2023/08/25 08:15:35;;;;;;;10.50;6.82;;;;;;;23.43;52.68;99937.56;5030729;28;20326;-69
2023/08/25 08:18:04;;;;;;;13.02;7.35;;;;;;;23.48;52.58;99929.38;5025149;28;20202;-68
2023/08/25 08:20:33;;;;;;;9.07;6.78;;;;;;;23.48;52.60;99927.56;5034669;28;20206;-68
2023/08/25 08:23:02;;;;;;;8.23;7.30;;;;;;;23.57;52.68;99928.75;5034868;28;20636;-68
2023/08/25 08:25:30;;;;;;;10.13;7.22;;;;;;;23.68;52.64;99928.06;5034862;28;20661;-69
2023/08/25 08:27:58;;;;;;;8.35;6.75;;;;;;;23.79;52.39;99922.94;5034694;28;20645;-70
2023/08/25 08:30:26;;;;;;;12.70;7.05;;;;;;;23.92;51.87;99923.75;5034922;28;20714;-70
2023/08/25 08:32:55;;;;;;;9.57;6.50;;;;;;;23.98;51.62;99920.69;5034596;28;20720;-70
2023/08/25 08:35:24;;;;;;;7.32;6.63;;;;;;;23.96;51.83;99922.59;5034601;28;20206;-69
2023/08/25 08:37:52;;;;;;;9.57;6.95;;;;;;;23.95;51.85;99920.91;5034468;28;20256;-68
2023/08/25 08:40:21;;;;;;;10.27;6.82;;;;;;;23.91;51.99;99926.50;5034830;28;20217;-69
2023/08/25 08:42:52;;;;;;;9.73;6.68;;;;;;;23.85;51.89;99925.94;5034326;28;20202;-69
2023/08/25 08:45:24;;;;;;;8.38;6.93;;;;;;;23.80;52.00;99928.06;5034231;28;20242;-68
2023/08/25 08:47:54;;;;;;;10.23;7.50;;;;;;;23.77;52.62;99925.63;5028322;28;20210;-69
2023/08/25 08:50:24;;;;;;;9.70;6.88;;;;;;;23.73;52.53;99929.44;5021040;28;20234;-69
2023/08/25 08:52:52;;;;;;;9.40;6.63;;;;;;;23.69;52.28;99927.13;5034187;28;20202;-69
2023/08/25 08:55:21;;;;;;;11.05;6.65;;;;;;;23.64;52.49;99919.50;5028659;28;20195;-67
2023/08/25 08:57:51;;;;;;;7.75;6.60;;;;;;;23.66;52.63;99925.50;5026355;28;20198;-70
2023/08/25 09:00:20;;;;;;;10.73;6.55;;;;;;;23.71;52.93;99930.47;5029556;28;20203;-68
2023/08/25 09:02:53;;;;;;;9.90;5.93;;;;;;;23.80;53.08;99935.97;5024957;28;20213;-68
2023/08/25 09:05:27;;;;;;;9.63;6.68;;;;;;;23.90;53.30;99932.69;5034009;28;20198;-70
2023/08/25 09:08:00;;;;;;;9.80;6.35;;;;;;;23.99;52.89;99921.53;5034189;28;20661;-68
2023/08/25 09:10:29;;;;;;;10.27;6.78;;;;;;;24.07;52.36;99927.94;5033476;28;20234;-69
2023/08/25 09:12:58;;;;;;;11.10;8.23;;;;;;;24.11;51.91;99918.03;5034192;28;20552;-68
2023/08/25 09:15:28;;;;;;;6.78;6.18;;;;;;;24.15;52.33;99916.03;5033833;28;20673;-67
2023/08/25 09:18:02;;;;;;;9.00;6.43;;;;;;;24.14;52.07;99925.72;5034139;28;20260;-70
2023/08/25 09:20:33;;;;;;;7.32;6.22;;;;;;;24.14;51.94;99935.44;5034039;28;20624;-69
2023/08/25 09:23:03;;;;;;;8.70;6.30;;;;;;;24.15;52.29;99937.09;5033343;28;20198;-69
2023/08/25 09:25:32;;;;;;;8.13;6.32;;;;;;;24.17;52.33;99929.94;5033647;28;20206;-69
2023/08/25 09:28:02;;;;;;;8.88;6.47;;;;;;;24.19;51.87;99928.03;5033777;28;20210;-70
2023/08/25 09:30:37;;;;;;;11.35;6.70;;;;;;;24.17;51.80;99927.31;5033436;28;20241;-69
2023/08/25 09:33:07;;;;;;;8.63;6.20;;;;;;;24.17;52.02;99919.41;5033518;28;20234;-72
2023/08/25 09:35:35;;;;;;;8.35;6.50;;;;;;;24.20;52.02;99914.78;5033608;28;20221;-70
2023/08/25 09:38:05;;;;;;;15.02;6.45;;;;;;;24.20;51.74;99917.41;5033266;28;20203;-71
2023/08/25 09:40:35;;;;;;;7.22;5.97;;;;;;;24.23;51.66;99924.22;5033473;28;20657;-71
2023/08/25 09:43:04;;;;;;;9.57;7.10;;;;;;;24.24;51.51;99910.97;5033538;28;20617;-68
2023/08/25 09:45:33;;;;;;;7.95;5.88;;;;;;;24.23;51.13;99908.44;5024608;28;20271;-69
2023/08/25 09:48:08;;;;;;;11.45;5.43;;;;;;;24.23;50.84;99906.66;5020348;28;20207;-70
2023/08/25 09:50:38;;;;;;;8.27;5.72;;;;;;;24.19;51.25;99899.06;5033021;28;20221;-69
2023/08/25 09:53:09;;;;;;;8.00;5.82;;;;;;;24.30;51.02;99904.41;5033325;28;20206;-69
2023/08/25 09:55:38;;;;;;;8.73;6.63;;;;;;;24.32;50.98;99899.91;5032848;28;20210;-69
2023/08/25 09:58:08;;;;;;;6.82;6.15;;;;;;;24.37;50.79;99895.13;5033160;28;20686;-68
2023/08/25 10:00:37;;;;;;;9.73;5.68;;;;;;;24.32;50.94;99903.38;5032907;28;20205;-68
2023/08/25 10:03:08;;;;;;;7.30;5.63;;;;;;;24.32;51.31;99897.28;5033186;28;20650;-71
2023/08/25 10:05:38;;;;;;;10.73;6.28;;;;;;;24.27;51.21;99894.13;5033156;28;20737;-69
2023/08/25 10:08:09;;;;;;;12.98;6.15;;;;;;;24.18;51.49;99892.13;5032945;28;20298;-69
2023/08/25 10:10:39;;;;;;;8.63;6.20;;;;;;;24.09;51.66;99886.56;5032473;28;20223;-69
2023/08/25 10:13:10;;;;;;;9.35;6.30;;;;;;;24.03;52.11;99891.41;5032638;28;20203;-69
2023/08/25 10:15:43;;;;;;;7.93;6.13;;;;;;;23.93;52.00;99885.94;5032377;28;20213;-70
2023/08/25 10:18:13;;;;;;;6.60;5.72;;;;;;;23.89;52.74;99883.63;5032446;28;20213;-69
2023/08/25 10:20:43;;;;;;;7.10;5.82;;;;;;;23.84;52.94;99886.59;5032483;28;20226;-70
2023/08/25 10:23:14;;;;;;;6.82;5.70;;;;;;;23.83;53.12;99890.19;5032434;28;20665;-69
2023/08/25 10:25:43;;;;;;;11.68;6.57;;;;;;;23.78;53.09;99879.13;5032797;28;20543;-69
2023/08/25 10:28:11;;;;;;;12.70;6.65;;;;;;;23.75;53.55;99879.31;5032370;28;20199;-68
2023/08/25 10:30:40;;;;;;;10.00;5.95;;;;;;;23.75;53.45;99881.97;5032296;28;20219;-68
2023/08/25 10:33:10;;;;;;;10.13;6.57;;;;;;;23.76;53.56;99881.88;5031723;28;20242;-69
2023/08/25 10:35:43;;;;;;;7.72;6.05;;;;;;;23.78;53.71;99879.13;5032449;28;20238;-68
2023/08/25 10:38:39;;;;;;;8.98;6.60;;;;;;;23.79;53.46;99873.75;5031974;28;20203;-70
2023/08/25 10:41:16;;;;;;;10.00;6.18;;;;;;;23.83;53.65;99877.03;5032138;28;20210;-70
2023/08/25 10:43:53;;;;;;;6.95;5.63;;;;;;;23.89;53.35;99879.22;5032257;28;20215;-69
2023/08/25 10:46:22;;;;;;;8.10;6.07;;;;;;;23.93;53.12;99879.84;5032373;28;20549;-69
2023/08/25 10:49:13;;;;;;;7.78;6.28;;;;;;;23.97;53.27;99878.69;5032094;28;20206;-69
2023/08/25 10:51:41;;;;;;;10.98;5.70;;;;;;;23.98;52.96;99891.75;5032411;28;20626;-71
2023/08/25 10:54:20;;;;;;;8.68;5.28;;;;;;;23.91;52.79;99906.28;5032086;28;20210;-70
2023/08/25 10:56:52;;;;;;;7.88;5.20;;;;;;;23.89;52.98;99907.31;5032102;28;20199;-69
2023/08/25 10:59:21;;;;;;;6.75;5.03;;;;;;;23.82;53.18;99906.91;5032152;28;20670;-70
2023/08/25 11:01:59;;;;;;;7.68;5.25;;;;;;;23.77;53.00;99914.28;5031970;28;20662;-70
2023/08/25 11:04:29;;;;;;;7.88;5.32;;;;;;;23.71;53.16;99912.91;5021510;28;20207;-72
2023/08/25 11:06:59;;;;;;;5.47;4.97;;;;;;;23.68;52.97;99913.13;5025734;28;20214;-69
2023/08/25 11:09:35;;;;;;;9.68;5.22;;;;;;;23.66;53.25;99909.72;5021791;28;20731;-71
2023/08/25 11:12:08;;;;;;;9.57;5.18;;;;;;;23.68;53.04;99912.28;5028626;28;20574;-70
2023/08/25 11:14:38;;;;;;;7.78;5.28;;;;;;;23.66;53.20;99908.88;5022055;28;20684;-68
2023/08/25 11:17:08;;;;;;;6.32;5.38;;;;;;;23.67;52.85;99910.59;5031762;28;20601;-68
2023/08/25 11:19:39;;;;;;;8.07;5.05;;;;;;;23.66;53.27;99908.88;5031965;28;20602;-71
2023/08/25 11:22:11;;;;;;;7.70;6.00;;;;;;;23.65;53.45;99915.94;5031657;28;20263;-69
2023/08/25 11:24:41;;;;;;;6.93;5.20;;;;;;;23.66;53.36;99919.41;5022802;28;20208;-71
2023/08/25 11:27:11;;;;;;;7.20;5.35;;;;;;;23.69;53.53;99903.44;5023068;28;20237;-68
2023/08/25 11:29:44;;;;;;;12.15;5.95;;;;;;;23.68;53.63;99894.72;5031370;28;20304;-68
2023/08/25 11:32:13;;;;;;;14.40;6.38;;;;;;;23.65;54.71;99894.06;5031166;28;20218;-70
2023/08/25 11:34:41;;;;;;;7.53;5.70;;;;;;;23.60;56.13;99892.56;5031277;28;20260;-69
2023/08/25 11:37:13;;;;;;;7.75;5.70;;;;;;;23.45;57.57;99890.13;5031568;28;20202;-69